Time;durP1;ratioP1;P1;durP2;ratioP2;P2;SDS_P1;SDS_P2;PMS_P1;PMS_P2;Temp;Humidity;BMP_temperature;BMP_pressure;BME280_temperature;BME280_humidity;BME280_pressure;Samples;Min_cycle;Max_cycle;Signal;HPM_P1;HPM_P2
2022/05/14 04:01:57;;;;;;;3.17;2.93;;;10.80;99.90;;;-143.14;100.00;56521.75;5284966;23;20502;-74
2022/05/14 04:04:24;;;;;;;5.50;3.40;;;10.70;99.90;;;-143.14;100.00;56521.75;4946671;29;20457;-74
2022/05/14 04:06:51;;;;;;;4.30;3.00;;;10.70;99.90;;;-143.14;100.00;56521.75;4946482;29;20490;-74
2022/05/14 04:09:21;;;;;;;7.60;3.40;;;10.70;99.90;;;-143.14;100.00;56521.75;4946805;29;20453;-74
2022/05/14 04:11:49;;;;;;;4.20;3.50;;;10.70;99.90;;;-143.14;100.00;56521.75;4934753;28;21010;-74
2022/05/14 04:14:16;;;;;;;6.60;3.57;;;10.70;99.90;;;-143.14;100.00;56521.75;4927311;29;20585;-75
2022/05/14 04:16:43;;;;;;;4.17;3.40;;;10.70;99.90;;;-143.14;100.00;56521.75;4925848;29;20502;-76
2022/05/14 04:19:12;;;;;;;4.43;3.23;;;10.60;99.90;;;-143.14;100.00;56521.75;4909471;29;20495;-74
2022/05/14 04:21:39;;;;;;;3.90;3.10;;;10.60;99.90;;;-143.14;100.00;56521.75;4909180;29;20523;-76
2022/05/14 04:24:07;;;;;;;4.23;3.27;;;10.60;99.90;;;-143.14;100.00;56521.75;4908560;29;20462;-74
2022/05/14 04:26:34;;;;;;;4.27;3.20;;;10.50;99.90;;;-143.14;100.00;56521.75;4918840;29;20483;-74
2022/05/14 04:29:01;;;;;;;4.30;3.00;;;10.60;99.90;;;-143.14;100.00;56521.75;4927991;29;21126;-74
2022/05/14 04:31:28;;;;;;;5.87;3.40;;;10.50;99.90;;;-143.14;100.00;56521.75;4927927;29;20566;-74
2022/05/14 04:33:56;;;;;;;3.80;3.17;;;10.50;99.90;;;-143.14;100.00;56521.75;4927844;29;21150;-74
2022/05/14 04:36:24;;;;;;;5.20;3.47;;;10.50;99.90;;;-143.14;100.00;56521.75;4917528;29;20494;-74
2022/05/14 04:38:52;;;;;;;3.10;2.80;;;10.50;99.90;;;-143.14;100.00;56521.75;4909151;29;20467;-74
2022/05/14 04:41:19;;;;;;;4.20;3.40;;;10.50;99.90;;;-143.14;100.00;56521.75;4909033;29;20987;-74
2022/05/14 04:43:46;;;;;;;4.53;3.30;;;10.40;99.90;;;-143.14;100.00;56521.75;4909200;29;20470;-74
2022/05/14 04:46:13;;;;;;;4.30;3.13;;;10.40;99.90;;;-143.14;100.00;56521.75;4908220;29;20515;-74
2022/05/14 04:48:40;;;;;;;3.20;3.00;;;10.40;99.90;;;-143.14;100.00;56521.75;4919567;29;20458;-74
2022/05/14 04:51:07;;;;;;;5.27;3.30;;;10.50;99.90;;;-143.14;100.00;56521.75;4928001;29;20566;-74
2022/05/14 04:53:36;;;;;;;5.57;3.17;;;10.50;99.90;;;-143.14;100.00;56521.75;4927738;29;20462;-74
2022/05/14 04:56:03;;;;;;;4.97;3.67;;;10.50;99.90;;;-143.14;100.00;56521.75;4927005;29;20589;-74
2022/05/14 04:58:31;;;;;;;3.83;3.00;;;10.50;99.90;;;-143.14;100.00;56521.75;4927738;29;20470;-74
2022/05/14 05:00:58;;;;;;;4.67;3.27;;;10.50;99.90;;;-143.14;100.00;56521.75;4929530;29;20474;-76
2022/05/14 05:03:24;;;;;;;3.90;3.50;;;10.50;99.90;;;-143.14;100.00;56521.75;4915557;29;20459;-76
2022/05/14 05:05:55;;;;;;;4.20;3.37;;;10.60;99.90;;;-143.14;100.00;56521.75;4911511;29;20466;-76
2022/05/14 05:08:25;;;;;;;4.30;3.47;;;10.60;99.90;;;-143.14;100.00;56521.75;4912206;29;20549;-76
2022/05/14 05:10:54;;;;;;;4.50;2.97;;;10.50;99.90;;;-143.14;100.00;56521.75;4912581;29;20483;-76
2022/05/14 05:13:26;;;;;;;3.47;3.17;;;10.60;99.90;;;-143.14;100.00;56521.75;4912166;29;20998;-76
2022/05/14 05:15:56;;;;;;;4.63;3.20;;;10.60;99.90;;;-143.14;100.00;56521.75;4911785;29;20610;-76
2022/05/14 05:18:24;;;;;;;4.07;3.27;;;10.70;99.90;;;-143.14;100.00;56521.75;4921312;29;20469;-76
2022/05/14 05:20:54;;;;;;;4.23;3.60;;;10.60;99.90;;;-143.14;100.00;56521.75;4930821;29;20478;-76
2022/05/14 05:23:24;;;;;;;4.50;3.20;;;10.70;99.90;;;-143.14;100.00;56521.75;4931087;29;20545;-76
2022/05/14 05:25:53;;;;;;;3.80;3.10;;;10.60;99.90;;;-143.14;100.00;56521.75;4930446;29;20464;-76
2022/05/14 05:28:20;;;;;;;4.13;3.23;;;10.70;99.90;;;-143.14;100.00;56521.75;4931266;29;20454;-76
2022/05/14 05:30:48;;;;;;;4.37;3.27;;;10.70;99.90;;;-143.14;100.00;56521.75;4930785;29;20482;-76
2022/05/14 05:33:18;;;;;;;3.53;3.13;;;10.70;99.90;;;-143.14;100.00;56521.75;4928004;29;20463;-76
2022/05/14 05:35:45;;;;;;;3.43;3.13;;;10.70;99.90;;;-143.14;100.00;56521.75;4930259;29;20838;-76
2022/05/14 05:38:13;;;;;;;4.20;3.53;;;10.80;99.90;;;-143.14;100.00;56521.75;4931234;29;20458;-67
2022/05/14 05:40:41;;;;;;;4.83;3.87;;;10.80;99.90;;;-143.14;100.00;56521.75;4931266;29;20516;-68
2022/05/14 05:43:11;;;;;;;4.10;3.50;;;10.90;99.90;;;-143.14;100.00;56521.75;4930840;29;20462;-68
2022/05/14 05:45:41;;;;;;;4.70;3.80;;;10.90;99.90;;;-143.14;100.00;56521.75;4930019;29;20817;-76
2022/05/14 05:48:10;;;;;;;6.07;3.43;;;10.90;99.90;;;-143.14;100.00;56521.75;4926360;29;20959;-76
2022/05/14 05:50:38;;;;;;;4.40;4.00;;;10.90;99.90;;;-143.14;100.00;56521.75;4913572;29;20483;-78
2022/05/14 05:53:05;;;;;;;3.83;3.53;;;10.90;99.90;;;-143.14;100.00;56521.75;4911725;29;20454;-79
2022/05/14 05:58:20;;;;;;;5.20;3.37;;;11.00;99.90;;;-143.14;100.00;56521.75;4913156;29;20971;-79
2022/05/14 06:00:47;;;;;;;5.90;3.90;;;11.00;99.90;;;-143.14;100.00;56521.75;4913089;29;20569;-79
2022/05/14 06:03:14;;;;;;;5.63;3.57;;;11.10;99.90;;;-143.14;100.00;56521.75;4913391;29;20542;-78
2022/05/14 06:05:42;;;;;;;5.10;3.30;;;11.10;99.90;;;-143.14;100.00;56521.75;4912390;29;20462;-78
2022/05/14 06:08:11;;;;;;;4.80;3.60;;;11.10;99.90;;;-143.14;100.00;56521.75;4912615;29;20455;-78
2022/05/14 06:10:38;;;;;;;13.93;3.30;;;11.20;99.90;;;-143.14;100.00;56521.75;4911834;29;20562;-79
2022/05/14 06:13:08;;;;;;;4.20;3.80;;;11.20;99.90;;;-143.14;100.00;56521.75;4912457;29;21048;-79
2022/05/14 06:15:39;;;;;;;4.60;3.20;;;11.30;99.90;;;-143.14;100.00;56521.75;4912321;29;20948;-79
2022/05/14 06:18:07;;;;;;;4.90;3.40;;;11.30;99.90;;;-143.14;100.00;56521.75;4920945;29;20502;-78
2022/05/14 06:20:37;;;;;;;4.23;3.00;;;11.30;99.90;;;-143.14;100.00;56521.75;4931630;29;20543;-78
2022/05/14 06:23:04;;;;;;;7.63;3.97;;;11.40;99.90;;;-143.14;100.00;56521.75;4931529;29;20465;-77
2022/05/14 06:25:31;;;;;;;4.60;3.60;;;11.40;99.90;;;-143.14;100.00;56521.75;4935792;29;20461;-77
2022/05/14 06:27:58;;;;;;;5.53;4.03;;;11.50;99.90;;;-143.14;100.00;56521.75;4947651;28;20462;-77
2022/05/14 06:30:26;;;;;;;3.97;3.47;;;11.70;99.90;;;-143.14;100.00;56521.75;4949067;28;20481;-77
2022/05/14 06:32:55;;;;;;;6.20;3.70;;;11.70;99.90;;;-143.14;100.00;56521.75;4934196;28;20462;-77
2022/05/14 06:35:22;;;;;;;4.50;3.80;;;11.70;99.90;;;-143.14;100.00;56521.75;4929191;29;20534;-77
2022/05/14 06:37:49;;;;;;;6.27;3.47;;;11.80;99.90;;;-143.14;100.00;56521.75;4929220;29;20608;-77
2022/05/14 06:40:16;;;;;;;5.17;3.30;;;12.00;99.90;;;-143.14;100.00;56521.75;4929595;29;20553;-75
2022/05/14 06:42:43;;;;;;;4.57;3.17;;;12.00;99.90;;;-143.14;100.00;56521.75;4929634;29;20824;-76
2022/05/14 06:45:11;;;;;;;4.17;3.77;;;12.10;99.90;;;-143.14;100.00;56521.75;4928760;29;20541;-75
2022/05/14 06:47:38;;;;;;;4.83;3.73;;;12.20;99.90;;;-143.14;100.00;56521.75;4915205;29;20538;-75
2022/05/14 06:50:08;;;;;;;6.37;3.10;;;12.30;99.90;;;-143.14;100.00;56521.75;4910284;29;20459;-76
2022/05/14 06:52:41;;;;;;;3.53;3.13;;;12.40;99.90;;;-143.14;100.00;56521.75;4910324;29;20517;-78
2022/05/14 06:55:12;;;;;;;4.13;2.87;;;12.50;99.90;;;-143.14;100.00;56521.75;4910057;29;20455;-77
2022/05/14 06:57:39;;;;;;;5.50;3.60;;;12.60;99.90;;;-143.14;100.00;56521.75;4910629;29;20509;-78
2022/05/14 07:00:08;;;;;;;4.90;2.63;;;12.70;99.90;;;-143.14;100.00;56521.75;4911328;29;20459;-76
2022/05/14 07:02:38;;;;;;;6.90;3.00;;;12.80;99.90;;;-143.14;100.00;56521.75;4929013;29;20486;-78
2022/05/14 07:07:53;;;;;;;5.10;3.07;;;12.90;99.90;;;-143.14;100.00;56521.75;4935564;29;20457;-78
2022/05/14 07:10:23;;;;;;;7.47;2.80;;;13.00;99.90;;;-143.14;100.00;56521.75;4948355;28;20516;-76
2022/05/14 07:12:51;;;;;;;5.97;2.60;;;13.10;99.90;;;-143.14;100.00;56521.75;4948350;28;20461;-77
2022/05/14 07:15:18;;;;;;;7.13;2.20;;;13.20;99.90;;;-143.14;100.00;56521.75;4941781;28;20466;-76
2022/05/14 07:17:45;;;;;;;2.57;2.17;;;13.30;99.90;;;-143.14;100.00;56521.75;4929007;29;20868;-77
2022/05/14 07:20:14;;;;;;;2.60;2.17;;;13.40;99.90;;;-143.14;100.00;56521.75;4928883;29;20537;-76
2022/05/14 07:22:41;;;;;;;4.93;2.20;;;13.50;99.90;;;-143.14;100.00;56521.75;4928487;29;20458;-76
2022/05/14 07:25:10;;;;;;;3.90;2.80;;;13.70;99.90;;;-143.14;100.00;56521.75;4927342;29;20511;-76
2022/05/14 07:27:37;;;;;;;4.13;2.10;;;13.80;99.90;;;-143.14;100.00;56521.75;4928027;29;20542;-76
2022/05/14 07:30:05;;;;;;;2.40;1.90;;;14.10;99.90;;;-143.14;100.00;56521.75;4918502;29;20960;-76
2022/05/14 07:32:32;;;;;;;4.00;1.90;;;14.30;99.90;;;-143.14;100.00;56521.75;4916417;29;21078;-76
2022/05/14 07:34:59;;;;;;;4.20;1.90;;;14.50;99.90;;;-143.14;100.00;56521.75;4928024;29;20466;-76
2022/05/14 07:37:35;;;;;;;3.40;2.30;;;14.60;99.90;;;-143.14;100.00;56521.75;4928149;29;20880;-76
2022/05/14 07:40:11;;;;;;;4.33;2.50;;;14.70;99.90;;;-143.14;100.00;56521.75;4928563;29;20458;-76
2022/05/14 07:42:47;;;;;;;8.70;2.93;;;14.80;99.90;;;-143.14;100.00;56521.75;4928695;29;20462;-76
2022/05/14 07:45:23;;;;;;;3.83;2.53;;;14.80;99.90;;;-143.14;100.00;56521.75;4927814;29;20953;-76
2022/05/14 07:47:51;;;;;;;4.47;2.10;;;14.90;99.90;;;-143.14;100.00;56521.75;4912874;29;20462;-76
2022/05/14 07:50:18;;;;;;;3.07;1.90;;;15.00;99.90;;;-143.14;100.00;56521.75;4909358;29;20550;-76
2022/05/14 07:52:47;;;;;;;2.30;1.70;;;15.20;99.90;;;-143.14;100.00;56521.75;4909371;29;20459;-77
2022/05/14 07:55:14;;;;;;;3.83;1.90;;;15.40;99.90;;;-143.14;100.00;56521.75;4909052;29;20487;-75
2022/05/14 07:57:41;;;;;;;3.50;1.97;;;15.50;99.90;;;-143.14;100.00;56521.75;4909384;29;20502;-75
2022/05/14 08:00:10;;;;;;;3.63;1.60;;;15.60;99.90;;;-143.14;100.00;56521.75;4909637;29;20459;-75
2022/05/14 08:02:37;;;;;;;5.03;2.50;;;15.70;99.90;;;-143.14;100.00;56521.75;4910298;29;20495;-75
2022/05/14 08:05:08;;;;;;;5.03;2.00;;;15.90;99.90;;;-143.14;100.00;56521.75;4908623;29;20470;-75
2022/05/14 08:07:35;;;;;;;4.70;2.17;;;16.00;99.90;;;-143.14;100.00;56521.75;4909061;29;20459;-75
2022/05/14 08:10:08;;;;;;;4.40;1.50;;;16.10;99.90;;;-143.14;100.00;56521.75;4909245;29;20463;-76
2022/05/14 08:12:41;;;;;;;6.87;1.77;;;16.20;99.90;;;-143.14;100.00;56521.75;4909297;29;20529;-76
2022/05/14 08:15:11;;;;;;;5.10;1.83;;;16.30;99.90;;;-143.14;100.00;56521.75;4912405;29;20447;-77
2022/05/14 08:17:38;;;;;;;4.50;2.07;;;16.40;99.90;;;-143.14;100.00;56521.75;4928047;29;20498;-77
2022/05/14 08:20:08;;;;;;;2.93;1.40;;;16.60;99.90;;;-143.14;100.00;56521.75;4928338;29;20494;-77
2022/05/14 08:25:21;;;;;;;3.33;1.80;;;17.00;99.90;;;-143.14;100.00;56521.75;4925753;29;20827;-76
2022/05/14 08:27:49;;;;;;;6.07;2.07;;;17.20;99.90;;;-143.14;100.00;56521.75;4927608;29;20468;-77
2022/05/14 08:30:21;;;;;;;3.07;1.80;;;17.30;99.90;;;-143.14;100.00;56521.75;4921249;29;20542;-77
2022/05/14 08:32:48;;;;;;;5.63;1.90;;;17.50;99.90;;;-143.14;100.00;56521.75;4909352;29;20485;-77
2022/05/14 08:35:18;;;;;;;4.17;1.60;;;17.60;99.90;;;-143.14;100.00;56521.75;4909046;29;20545;-77
2022/05/14 08:37:46;;;;;;;7.67;1.80;;;17.70;99.90;;;-143.14;100.00;56521.75;4912519;29;20874;-77
2022/05/14 08:40:20;;;;;;;8.53;1.80;;;17.90;99.90;;;-143.14;100.00;56521.75;4912510;29;20490;-77
2022/05/14 08:42:54;;;;;;;3.70;1.67;;;18.00;99.90;;;-143.14;100.00;56521.75;4912114;29;20855;-77
2022/05/14 08:45:25;;;;;;;2.83;1.50;;;18.30;99.90;;;-143.14;100.00;56521.75;4926527;29;20450;-77
2022/05/14 08:47:56;;;;;;;3.53;1.50;;;18.50;99.90;;;-143.14;100.00;56521.75;4931544;29;20841;-77
2022/05/14 08:50:29;;;;;;;6.67;1.90;;;18.60;99.90;;;-143.14;100.00;56521.75;4930968;29;21022;-77
2022/05/14 08:53:01;;;;;;;4.07;1.60;;;18.70;99.90;;;-143.14;100.00;56521.75;4930805;29;20456;-77
2022/05/14 08:55:40;;;;;;;1.73;1.43;;;18.80;99.90;;;-143.14;100.00;56521.75;4930632;29;20598;-77
2022/05/14 08:58:34;;;;;;;4.40;1.50;;;18.90;99.90;;;-143.14;100.00;56521.75;4931431;29;21002;-77
2022/05/14 09:01:03;;;;;;;2.30;1.30;;;19.10;99.90;;;-143.14;100.00;56521.75;4911776;29;20493;-77
2022/05/14 09:03:32;;;;;;;2.17;1.57;;;19.30;99.90;;;-143.14;100.00;56521.75;4911681;29;20463;-77
2022/05/14 09:06:00;;;;;;;4.00;2.13;;;19.40;99.90;;;-143.14;100.00;56521.75;4911599;29;20463;-77
2022/05/14 09:08:28;;;;;;;5.10;1.87;;;19.50;99.90;;;-143.14;100.00;56521.75;4912097;29;20549;-77
2022/05/14 09:11:01;;;;;;;3.20;1.37;;;19.50;99.90;;;-143.14;100.00;56521.75;4912087;29;20554;-77
2022/05/14 09:13:43;;;;;;;3.20;1.50;;;19.80;99.90;;;-143.14;100.00;56521.75;4920905;29;20662;-77
2022/05/14 09:16:24;;;;;;;3.40;1.53;;;20.20;99.90;;;-143.14;100.00;56521.75;4930196;29;20466;-77
2022/05/14 09:18:53;;;;;;;6.03;1.70;;;20.20;99.90;;;-143.14;100.00;56521.75;4931021;29;20525;-78
2022/05/14 09:21:24;;;;;;;1.40;1.23;;;20.50;99.90;;;-143.14;100.00;56521.75;4930873;29;20841;-77
2022/05/14 09:23:56;;;;;;;2.60;1.43;;;20.60;99.90;;;-143.14;100.00;56521.75;4931030;29;20456;-77
2022/05/14 09:26:34;;;;;;;4.83;1.73;;;20.60;99.90;;;-143.14;100.00;56521.75;4932956;29;20545;-78
2022/05/14 09:29:24;;;;;;;6.97;1.60;;;20.60;99.90;;;-143.14;100.00;56521.75;4933451;29;20458;-78
2022/05/14 09:31:56;;;;;;;3.87;1.60;;;20.60;99.90;;;-143.14;100.00;56521.75;4930219;29;20475;-78
2022/05/14 09:34:24;;;;;;;3.53;1.53;;;20.70;99.90;;;-143.14;100.00;56521.75;4911706;29;20443;-78
2022/05/14 09:36:52;;;;;;;5.47;1.50;;;20.70;99.90;;;-143.14;100.00;56521.75;4913399;29;20545;-79
2022/05/14 09:39:23;;;;;;;3.70;1.77;;;20.80;99.90;;;-143.14;100.00;56521.75;4913008;29;20452;-79
2022/05/14 09:41:53;;;;;;;2.73;1.20;;;20.90;99.90;;;-143.14;100.00;56521.75;4913129;29;20498;-78
2022/05/14 09:44:26;;;;;;;6.33;1.60;;;20.80;99.90;;;-143.14;100.00;56521.75;4911629;29;20463;-78
2022/05/14 09:47:07;;;;;;;3.97;1.43;;;20.80;99.90;;;-143.14;100.00;56521.75;4919687;29;20459;-78
2022/05/14 09:49:34;;;;;;;4.00;1.50;;;20.90;99.90;;;-143.14;100.00;56521.75;4931073;29;21006;-78
2022/05/14 09:52:06;;;;;;;5.83;1.33;;;21.00;99.90;;;-143.14;100.00;56521.75;4932408;29;20478;-78
2022/05/14 09:54:42;;;;;;;3.73;2.10;;;21.10;99.90;;;-143.14;100.00;56521.75;4930441;29;20553;-78
2022/05/14 09:57:44;;;;;;;3.33;1.57;;;21.20;99.90;;;-143.14;100.00;56521.75;4931034;29;20454;-78
2022/05/14 10:00:18;;;;;;;3.03;1.67;;;21.30;99.90;;;-143.14;100.00;56521.75;4931102;29;20469;-78
2022/05/14 10:03:19;;;;;;;1.37;1.27;;;21.50;99.90;;;-143.14;100.00;56521.75;4913101;29;20529;-78
2022/05/14 10:05:59;;;;;;;5.50;2.13;;;21.50;99.90;;;-143.14;100.00;56521.75;4911245;29;20460;-70
2022/05/14 10:08:50;;;;;;;2.60;1.33;;;21.60;99.90;;;-143.14;100.00;56521.75;4912608;29;20486;-74
2022/05/14 10:11:24;;;;;;;4.07;1.60;;;21.70;99.90;;;-143.14;100.00;56521.75;4912513;29;20517;-75
2022/05/14 10:14:08;;;;;;;4.63;2.03;;;21.70;99.90;;;-143.14;100.00;56521.75;4912567;29;20529;-75
2022/05/14 10:16:50;;;;;;;4.53;1.80;;;21.90;99.90;;;-143.14;100.00;56521.75;4926823;29;20457;-74
2022/05/14 10:19:49;;;;;;;6.00;2.10;;;22.00;99.90;;;-143.14;100.00;56521.75;4940481;29;20496;-81
2022/05/14 10:26:44;;;;;;;7.20;2.20;;;22.10;99.90;;;-143.14;100.00;56521.75;4922998;29;20511;-81
2022/05/14 10:28:18;;;;;;;7.33;1.50;;;23.10;99.90;;;-143.14;100.00;56521.75;4924980;29;20519;-82
2022/05/14 10:30:59;;;;;;;2.83;1.67;;;23.40;99.90;;;-143.14;100.00;56521.75;4935175;29;20473;-81
2022/05/14 10:33:32;;;;;;;3.60;1.50;;;23.40;99.90;;;-143.14;100.00;56521.75;4941329;29;20463;-81
2022/05/14 10:36:07;;;;;;;4.10;1.53;;;23.20;99.90;;;-143.14;100.00;56521.75;4934694;29;20434;-82
2022/05/14 10:38:47;;;;;;;4.17;1.70;;;23.00;99.90;;;-143.14;100.00;56521.75;4936295;29;20493;-80
2022/05/14 10:41:28;;;;;;;3.50;1.43;;;23.00;99.90;;;-143.14;100.00;56521.75;4936697;29;20494;-82
2022/05/14 10:44:01;;;;;;;3.07;1.50;;;23.10;99.90;;;-143.14;100.00;56521.75;4930837;29;20455;-83
2022/05/14 10:46:30;;;;;;;3.57;1.57;;;23.30;99.90;;;-143.14;100.00;56521.75;4915633;29;20444;-84
2022/05/14 10:49:08;;;;;;;4.27;1.10;;;23.50;99.90;;;-143.14;100.00;56521.75;4917765;29;20459;-83
2022/05/14 10:51:44;;;;;;;2.33;1.30;;;23.70;99.90;;;-143.14;100.00;56521.75;4918257;29;20999;-80
2022/05/14 10:54:16;;;;;;;2.23;1.30;;;23.80;99.90;;;-143.14;100.00;56521.75;4915362;29;20531;-83
2022/05/14 10:56:56;;;;;;;3.50;1.70;;;24.00;99.90;;;-143.14;100.00;56521.75;4913457;29;20542;-84
2022/05/14 10:59:36;;;;;;;3.60;1.30;;;24.10;99.90;;;-143.14;100.00;56521.75;4923504;29;20482;-83
2022/05/14 11:02:08;;;;;;;4.47;1.23;;;24.00;99.90;;;-143.14;100.00;56521.75;4934490;29;21465;-83
2022/05/14 11:04:51;;;;;;;2.73;1.20;;;24.10;99.90;;;-143.14;100.00;56521.75;4934981;29;21451;-83
2022/05/14 11:07:30;;;;;;;6.20;2.27;;;24.10;99.90;;;-143.14;100.00;56521.75;4936393;29;20450;-83
2022/05/14 11:10:16;;;;;;;1.57;1.20;;;24.00;99.90;;;-143.14;100.00;56521.75;4936572;29;21303;-83
2022/05/14 11:12:46;;;;;;;1.87;1.10;;;24.00;99.90;;;-143.14;100.00;56521.75;4935288;29;21013;-83
2022/05/14 11:15:24;;;;;;;4.97;1.30;;;24.10;99.90;;;-143.14;100.00;56521.75;4937536;29;20481;-84
2022/05/14 11:18:04;;;;;;;3.43;1.30;;;24.30;99.90;;;-143.14;100.00;56521.75;4937850;29;20586;-85
2022/05/14 11:20:33;;;;;;;5.50;1.37;;;24.80;99.90;;;-143.14;100.00;56521.75;4938332;29;20446;-84
2022/05/14 11:23:08;;;;;;;2.73;1.40;;;25.20;99.90;;;-143.14;100.00;56521.75;4936913;29;20551;-85
2022/05/14 11:25:36;;;;;;;2.97;1.27;;;25.20;98.80;;;-143.14;100.00;56521.75;4938358;29;20973;-82
2022/05/14 11:28:10;;;;;;;2.10;1.20;;;24.90;99.90;;;-143.14;100.00;56521.75;4936401;29;20446;-82
2022/05/14 11:30:43;;;;;;;4.03;1.27;;;24.70;96.50;;;-143.14;100.00;56521.75;4936678;29;20470;-84
2022/05/14 11:33:24;;;;;;;4.00;1.40;;;24.50;96.30;;;-143.14;100.00;56521.75;4925190;29;20458;-81
2022/05/14 11:35:59;;;;;;;3.10;1.10;;;24.60;99.20;;;-143.14;100.00;56521.75;4919042;29;20810;-83
2022/05/14 11:38:36;;;;;;;2.70;1.23;;;24.70;96.90;;;-143.14;100.00;56521.75;4915988;29;20550;-83
2022/05/14 11:41:06;;;;;;;3.00;1.30;;;24.80;97.00;;;-143.14;100.00;56521.75;4917772;29;20581;-84
2022/05/14 11:43:49;;;;;;;4.43;1.30;;;25.20;95.50;;;-143.14;100.00;56521.75;4920131;29;20463;-84
2022/05/14 11:46:28;;;;;;;3.13;1.50;;;25.10;94.70;;;-143.14;100.00;56521.75;4924421;29;20440;-83
2022/05/14 11:49:04;;;;;;;4.20;1.10;;;25.20;93.50;;;-143.14;100.00;56521.75;4940446;29;20919;-83
2022/05/14 11:51:51;;;;;;;1.93;1.00;;;25.20;93.40;;;-143.14;100.00;56521.75;4937956;29;20840;-80
2022/05/14 11:54:27;;;;;;;1.90;1.00;;;25.20;93.40;;;-143.14;100.00;56521.75;4939821;29;20434;-81
2022/05/14 11:57:02;;;;;;;2.37;1.30;;;25.20;95.80;;;-143.14;100.00;56521.75;4930829;29;20461;-69
2022/05/14 11:59:40;;;;;;;2.13;1.10;;;25.50;97.50;;;-143.14;100.00;56521.75;4928844;29;20504;-70
2022/05/14 12:02:17;;;;;;;2.30;1.50;;;25.60;93.40;;;-143.14;100.00;56521.75;4915494;29;21003;-71
2022/05/14 12:04:51;;;;;;;4.00;1.40;;;26.40;93.60;;;-143.14;100.00;56521.75;4932350;29;20456;-71
2022/05/14 12:07:45;;;;;;;6.00;1.13;;;26.20;92.00;;;-143.14;100.00;56521.75;4949187;28;20462;-71
2022/05/14 12:10:26;;;;;;;1.30;1.20;;;25.70;91.40;;;-143.14;100.00;56521.75;4949677;28;20467;-71
2022/05/14 12:13:07;;;;;;;3.43;1.30;;;25.50;91.30;;;-143.14;100.00;56521.75;4948909;28;20455;-71
2022/05/14 12:15:34;;;;;;;2.70;1.23;;;25.50;91.20;;;-143.14;100.00;56521.75;4941011;28;20458;-71
2022/05/14 12:18:02;;;;;;;1.83;1.13;;;25.50;92.20;;;-143.14;100.00;56521.75;4931085;29;20505;-72
2022/05/14 12:20:34;;;;;;;3.33;1.43;;;25.40;94.10;;;-143.14;100.00;56521.75;4929746;29;20465;-71
2022/05/14 12:23:06;;;;;;;2.80;1.63;;;25.40;94.90;;;-143.14;100.00;56521.75;4929417;29;20454;-71
2022/05/14 12:25:41;;;;;;;3.67;1.43;;;25.40;92.90;;;-143.14;100.00;56521.75;4910111;29;20486;-71
2022/05/14 12:28:21;;;;;;;3.80;1.20;;;25.30;93.20;;;-143.14;100.00;56521.75;4910291;29;20969;-71
2022/05/14 12:33:40;;;;;;;2.10;1.30;;;25.60;92.90;;;-143.14;100.00;56521.75;4910152;29;20431;-70
2022/05/14 12:36:12;;;;;;;1.83;1.20;;;25.40;87.00;;;-143.14;100.00;56521.75;4908625;29;20575;-71
2022/05/14 12:38:42;;;;;;;2.93;1.10;;;25.30;88.40;;;-143.14;100.00;56521.75;4909721;29;21046;-70
2022/05/14 12:41:27;;;;;;;4.50;1.30;;;25.10;85.70;;;-143.14;100.00;56521.75;4915441;29;20478;-71
2022/05/14 12:43:54;;;;;;;2.00;1.00;;;24.90;84.10;;;-143.14;100.00;56521.75;4929023;29;20465;-71
2022/05/14 12:46:22;;;;;;;1.97;1.23;;;24.80;84.60;;;-143.14;100.00;56521.75;4927886;29;20537;-71
2022/05/14 12:48:54;;;;;;;2.67;1.17;;;24.70;85.40;;;-143.14;100.00;56521.75;4919280;29;20457;-71
2022/05/14 12:51:25;;;;;;;2.30;1.00;;;24.60;85.40;;;-143.14;100.00;56521.75;4909852;29;20483;-70
2022/05/14 12:53:57;;;;;;;3.30;1.07;;;24.60;86.60;;;-143.14;100.00;56521.75;4910397;29;20960;-70
2022/05/14 12:56:32;;;;;;;2.97;1.10;;;25.00;87.60;;;-143.14;100.00;56521.75;4909758;29;20546;-71
2022/05/14 12:59:00;;;;;;;1.90;0.87;;;25.10;86.40;;;-143.14;100.00;56521.75;4908994;29;21007;-71
2022/05/14 13:01:28;;;;;;;2.50;1.00;;;25.10;87.80;;;-143.14;100.00;56521.75;4909592;29;21409;-69
2022/05/14 13:04:01;;;;;;;3.97;1.17;;;25.10;87.30;;;-143.14;100.00;56521.75;4909140;29;20471;-69
2022/05/14 13:06:32;;;;;;;1.83;1.00;;;25.10;84.70;;;-143.14;100.00;56521.75;4909241;29;20475;-70
2022/05/14 13:09:08;;;;;;;2.80;1.33;;;25.00;84.60;;;-143.14;100.00;56521.75;4909461;29;20546;-69
2022/05/14 13:11:45;;;;;;;6.00;1.10;;;25.00;89.50;;;-143.14;100.00;56521.75;4908861;29;20486;-70
2022/05/14 13:14:21;;;;;;;2.60;1.40;;;25.10;88.50;;;-143.14;100.00;56521.75;4908766;29;20550;-71
2022/05/14 13:16:56;;;;;;;4.50;1.23;;;25.20;92.10;;;-143.14;100.00;56521.75;4909793;29;20466;-72
2022/05/14 13:19:36;;;;;;;2.50;1.30;;;25.40;93.30;;;-143.14;100.00;56521.75;4910270;29;21423;-70
2022/05/14 13:22:07;;;;;;;6.47;1.40;;;25.50;90.30;;;-143.14;100.00;56521.75;4910112;29;20475;-72
2022/05/14 13:24:51;;;;;;;4.47;1.40;;;25.60;92.00;;;-143.14;100.00;56521.75;4912065;29;20923;-71
2022/05/14 13:27:35;;;;;;;3.00;1.20;;;25.70;90.60;;;-143.14;100.00;56521.75;4913576;29;20455;-71
2022/05/14 13:30:12;;;;;;;2.17;1.10;;;25.80;90.50;;;-143.14;100.00;56521.75;4912178;29;20455;-71
2022/05/14 13:32:40;;;;;;;6.23;1.37;;;25.80;90.30;;;-143.14;100.00;56521.75;4920869;29;20465;-70
2022/05/14 13:38:05;;;;;;;3.70;1.50;;;25.70;88.70;;;-143.14;100.00;56521.75;4931791;29;20472;-70
2022/05/14 13:40:43;;;;;;;3.43;1.10;;;25.60;90.30;;;-143.14;100.00;56521.75;4931324;29;21152;-69
2022/05/14 13:43:15;;;;;;;3.27;1.40;;;25.70;90.50;;;-143.14;100.00;56521.75;4932353;29;20454;-69
2022/05/14 13:45:53;;;;;;;3.87;1.67;;;25.80;90.00;;;-143.14;100.00;56521.75;4930232;29;20577;-72
2022/05/14 13:48:33;;;;;;;2.70;1.20;;;25.80;90.50;;;-143.14;100.00;56521.75;4911472;29;21345;-76
2022/05/14 13:51:08;;;;;;;5.20;1.30;;;25.80;91.90;;;-143.14;100.00;56521.75;4911378;29;20522;-75
2022/05/14 13:53:39;;;;;;;2.90;1.50;;;25.90;88.80;;;-143.14;100.00;56521.75;4911735;29;20982;-78
2022/05/14 13:56:11;;;;;;;5.93;1.30;;;25.80;87.50;;;-143.14;100.00;56521.75;4911324;29;20455;-76
2022/05/14 13:58:42;;;;;;;2.80;1.20;;;25.70;86.70;;;-143.14;100.00;56521.75;4911773;29;20509;-77
2022/05/14 14:01:26;;;;;;;3.67;1.20;;;25.60;85.30;;;-143.14;100.00;56521.75;4912368;29;20502;-75
2022/05/14 14:03:57;;;;;;;4.80;1.37;;;25.70;91.00;;;-143.14;100.00;56521.75;4911859;29;20466;-75
2022/05/14 14:06:30;;;;;;;3.70;1.43;;;25.70;90.20;;;-143.14;100.00;56521.75;4911567;29;20451;-74
2022/05/14 14:08:57;;;;;;;4.73;1.30;;;25.80;89.70;;;-143.14;100.00;56521.75;4911418;29;20482;-73
2022/05/14 14:11:27;;;;;;;2.90;1.40;;;25.90;90.20;;;-143.14;100.00;56521.75;4911338;29;20501;-73
2022/05/14 14:13:54;;;;;;;3.40;1.20;;;25.90;87.60;;;-143.14;100.00;56521.75;4911135;29;21175;-74
2022/05/14 14:16:21;;;;;;;1.63;1.10;;;26.10;88.00;;;-143.14;100.00;56521.75;4924303;29;20462;-76
2022/05/14 14:18:48;;;;;;;4.50;1.10;;;26.10;88.60;;;-143.14;100.00;56521.75;4933048;29;20493;-78
2022/05/14 14:21:16;;;;;;;3.27;1.40;;;26.10;84.10;;;-143.14;100.00;56521.75;4949180;28;20517;-72
2022/05/14 14:23:49;;;;;;;5.10;1.20;;;26.00;85.60;;;-143.14;100.00;56521.75;4949012;28;20485;-76
2022/05/14 14:26:17;;;;;;;4.27;1.30;;;26.00;84.80;;;-143.14;100.00;56521.75;4948590;29;20962;-73
2022/05/14 14:28:47;;;;;;;2.07;1.30;;;26.10;87.40;;;-143.14;100.00;56521.75;4948971;28;20463;-73
2022/05/14 14:31:15;;;;;;;1.43;1.10;;;26.10;87.10;;;-143.14;100.00;56521.75;4934718;28;21058;-74
2022/05/14 14:33:43;;;;;;;3.03;1.30;;;26.20;86.50;;;-143.14;100.00;56521.75;4948034;28;20454;-73
2022/05/14 14:36:10;;;;;;;2.30;1.17;;;26.10;84.80;;;-143.14;100.00;56521.75;4947873;28;20460;-74
2022/05/14 14:38:38;;;;;;;2.50;1.27;;;26.10;85.00;;;-143.14;100.00;56521.75;4948182;28;20532;-74